sensor_id;sensor_type;location;lat;lon;timestamp;temperature;humidity
19555;DHT22;9924;50.828;6.440;2024-03-02T00:02:14;9.00;99.90
19555;DHT22;9924;50.828;6.440;2024-03-02T00:04:40;9.00;99.90
19555;DHT22;9924;50.828;6.440;2024-03-02T00:07:09;9.00;99.90
19555;DHT22;9924;50.828;6.440;2024-03-02T00:09:35;9.00;99.90
19555;DHT22;9924;50.828;6.440;2024-03-02T00:12:02;9.00;99.90
19555;DHT22;9924;50.828;6.440;2024-03-02T00:14:31;9.00;99.90
19555;DHT22;9924;50.828;6.440;2024-03-02T00:16:57;9.00;99.90
19555;DHT22;9924;50.828;6.440;2024-03-02T00:19:23;9.00;99.90
19555;DHT22;9924;50.828;6.440;2024-03-02T00:21:49;9.10;99.90
19555;DHT22;9924;50.828;6.440;2024-03-02T00:26:51;9.10;99.90
19555;DHT22;9924;50.828;6.440;2024-03-02T00:29:17;9.10;99.90
19555;DHT22;9924;50.828;6.440;2024-03-02T00:31:45;9.10;99.90
19555;DHT22;9924;50.828;6.440;2024-03-02T00:34:13;9.10;99.90
19555;DHT22;9924;50.828;6.440;2024-03-02T00:36:39;9.10;99.90
19555;DHT22;9924;50.828;6.440;2024-03-02T00:39:05;9.10;99.90
19555;DHT22;9924;50.828;6.440;2024-03-02T00:41:33;9.10;99.90
19555;DHT22;9924;50.828;6.440;2024-03-02T00:44:06;9.20;99.90
19555;DHT22;9924;50.828;6.440;2024-03-02T00:46:40;9.10;99.90
19555;DHT22;9924;50.828;6.440;2024-03-02T00:49:20;9.00;99.90
19555;DHT22;9924;50.828;6.440;2024-03-02T00:51:47;9.10;99.90
19555;DHT22;9924;50.828;6.440;2024-03-02T00:54:20;9.10;99.90
19555;DHT22;9924;50.828;6.440;2024-03-02T00:56:47;9.10;99.90
19555;DHT22;9924;50.828;6.440;2024-03-02T00:59:13;9.20;99.90
19555;DHT22;9924;50.828;6.440;2024-03-02T01:01:39;9.20;99.90
19555;DHT22;9924;50.828;6.440;2024-03-02T01:04:04;9.30;99.90
19555;DHT22;9924;50.828;6.440;2024-03-02T01:06:31;9.30;99.90
19555;DHT22;9924;50.828;6.440;2024-03-02T01:08:56;9.30;99.90
19555;DHT22;9924;50.828;6.440;2024-03-02T01:11:22;9.30;99.90
19555;DHT22;9924;50.828;6.440;2024-03-02T01:13:48;9.40;99.90
19555;DHT22;9924;50.828;6.440;2024-03-02T01:16:14;9.50;99.90
19555;DHT22;9924;50.828;6.440;2024-03-02T01:18:41;9.50;99.90
19555;DHT22;9924;50.828;6.440;2024-03-02T01:21:08;9.50;99.90
19555;DHT22;9924;50.828;6.440;2024-03-02T01:23:33;9.50;99.90
19555;DHT22;9924;50.828;6.440;2024-03-02T01:25:59;9.50;99.90
19555;DHT22;9924;50.828;6.440;2024-03-02T01:28:25;9.50;99.90
19555;DHT22;9924;50.828;6.440;2024-03-02T01:30:50;9.50;99.90
19555;DHT22;9924;50.828;6.440;2024-03-02T01:33:20;9.50;99.90
19555;DHT22;9924;50.828;6.440;2024-03-02T01:35:46;9.50;99.90
19555;DHT22;9924;50.828;6.440;2024-03-02T01:38:12;9.40;99.90
19555;DHT22;9924;50.828;6.440;2024-03-02T01:40:38;9.40;99.90
19555;DHT22;9924;50.828;6.440;2024-03-02T01:43:05;9.50;99.90
19555;DHT22;9924;50.828;6.440;2024-03-02T01:45:31;9.50;99.90
19555;DHT22;9924;50.828;6.440;2024-03-02T01:47:57;9.40;99.90
19555;DHT22;9924;50.828;6.440;2024-03-02T01:50:28;9.50;99.90
19555;DHT22;9924;50.828;6.440;2024-03-02T01:52:55;9.50;99.90
19555;DHT22;9924;50.828;6.440;2024-03-02T01:55:21;9.40;99.90
19555;DHT22;9924;50.828;6.440;2024-03-02T01:57:47;9.40;99.90
19555;DHT22;9924;50.828;6.440;2024-03-02T02:00:14;9.40;99.90
19555;DHT22;9924;50.828;6.440;2024-03-02T02:02:40;9.40;99.90
19555;DHT22;9924;50.828;6.440;2024-03-02T02:05:06;9.50;99.90
19555;DHT22;9924;50.828;6.440;2024-03-02T02:07:31;9.50;99.90
19555;DHT22;9924;50.828;6.440;2024-03-02T02:09:57;9.50;99.90
19555;DHT22;9924;50.828;6.440;2024-03-02T02:12:23;9.50;99.90
19555;DHT22;9924;50.828;6.440;2024-03-02T02:14:49;9.60;99.90
19555;DHT22;9924;50.828;6.440;2024-03-02T02:17:18;9.60;99.90
19555;DHT22;9924;50.828;6.440;2024-03-02T02:19:44;9.60;99.90
19555;DHT22;9924;50.828;6.440;2024-03-02T02:22:13;9.50;99.90
19555;DHT22;9924;50.828;6.440;2024-03-02T02:24:40;9.50;99.90
19555;DHT22;9924;50.828;6.440;2024-03-02T02:27:09;9.40;99.90
19555;DHT22;9924;50.828;6.440;2024-03-02T02:29:36;9.40;99.90
19555;DHT22;9924;50.828;6.440;2024-03-02T02:32:02;9.30;99.90
19555;DHT22;9924;50.828;6.440;2024-03-02T02:34:28;9.20;99.90
19555;DHT22;9924;50.828;6.440;2024-03-02T02:36:54;9.10;99.90
19555;DHT22;9924;50.828;6.440;2024-03-02T02:39:21;9.00;99.90
19555;DHT22;9924;50.828;6.440;2024-03-02T02:41:48;9.10;99.90
19555;DHT22;9924;50.828;6.440;2024-03-02T02:44:14;9.20;99.90
19555;DHT22;9924;50.828;6.440;2024-03-02T02:46:40;9.10;99.90
19555;DHT22;9924;50.828;6.440;2024-03-02T02:49:06;9.10;99.90
19555;DHT22;9924;50.828;6.440;2024-03-02T02:51:32;9.10;99.90
19555;DHT22;9924;50.828;6.440;2024-03-02T02:53:57;9.10;99.90
19555;DHT22;9924;50.828;6.440;2024-03-02T02:56:23;9.10;99.90
19555;DHT22;9924;50.828;6.440;2024-03-02T02:58:49;9.10;99.90
19555;DHT22;9924;50.828;6.440;2024-03-02T03:01:15;9.00;99.90
19555;DHT22;9924;50.828;6.440;2024-03-02T03:03:45;9.00;99.90
19555;DHT22;9924;50.828;6.440;2024-03-02T03:06:11;9.00;99.90
19555;DHT22;9924;50.828;6.440;2024-03-02T03:08:37;9.00;99.90
19555;DHT22;9924;50.828;6.440;2024-03-02T03:11:03;9.00;99.90
19555;DHT22;9924;50.828;6.440;2024-03-02T03:13:33;9.00;99.90
19555;DHT22;9924;50.828;6.440;2024-03-02T03:15:59;8.90;99.90
19555;DHT22;9924;50.828;6.440;2024-03-02T03:18:26;8.80;99.90
19555;DHT22;9924;50.828;6.440;2024-03-02T03:20:52;8.80;99.90
19555;DHT22;9924;50.828;6.440;2024-03-02T03:23:18;8.70;99.90
19555;DHT22;9924;50.828;6.440;2024-03-02T03:25:43;8.80;99.90
19555;DHT22;9924;50.828;6.440;2024-03-02T03:28:09;8.90;99.90
19555;DHT22;9924;50.828;6.440;2024-03-02T03:30:39;8.80;99.90
19555;DHT22;9924;50.828;6.440;2024-03-02T03:33:05;8.70;99.90
19555;DHT22;9924;50.828;6.440;2024-03-02T03:35:32;8.70;99.90
19555;DHT22;9924;50.828;6.440;2024-03-02T03:37:58;8.70;99.90
19555;DHT22;9924;50.828;6.440;2024-03-02T03:40:24;8.70;99.90
19555;DHT22;9924;50.828;6.440;2024-03-02T03:42:50;8.60;99.90
19555;DHT22;9924;50.828;6.440;2024-03-02T03:45:16;8.60;99.90
19555;DHT22;9924;50.828;6.440;2024-03-02T03:47:42;8.60;99.90
19555;DHT22;9924;50.828;6.440;2024-03-02T03:50:08;8.60;99.90
19555;DHT22;9924;50.828;6.440;2024-03-02T03:52:33;8.60;99.90
19555;DHT22;9924;50.828;6.440;2024-03-02T03:55:00;8.60;99.90
19555;DHT22;9924;50.828;6.440;2024-03-02T03:57:26;8.60;99.90
19555;DHT22;9924;50.828;6.440;2024-03-02T03:59:53;8.60;99.90
19555;DHT22;9924;50.828;6.440;2024-03-02T04:02:19;8.60;99.90
19555;DHT22;9924;50.828;6.440;2024-03-02T04:04:44;8.60;99.90
19555;DHT22;9924;50.828;6.440;2024-03-02T04:07:10;8.60;99.90
19555;DHT22;9924;50.828;6.440;2024-03-02T04:09:36;8.50;99.90
19555;DHT22;9924;50.828;6.440;2024-03-02T04:12:02;8.50;99.90
19555;DHT22;9924;50.828;6.440;2024-03-02T04:14:27;8.60;99.90
19555;DHT22;9924;50.828;6.440;2024-03-02T04:16:53;8.50;99.90
19555;DHT22;9924;50.828;6.440;2024-03-02T04:19:19;8.50;99.90
19555;DHT22;9924;50.828;6.440;2024-03-02T04:21:44;8.50;99.90
19555;DHT22;9924;50.828;6.440;2024-03-02T04:24:10;8.40;99.90
19555;DHT22;9924;50.828;6.440;2024-03-02T04:26:36;8.40;99.90
19555;DHT22;9924;50.828;6.440;2024-03-02T04:29:01;8.40;99.90
19555;DHT22;9924;50.828;6.440;2024-03-02T04:31:27;8.40;99.90
19555;DHT22;9924;50.828;6.440;2024-03-02T04:33:53;8.30;99.90
19555;DHT22;9924;50.828;6.440;2024-03-02T04:36:19;8.30;99.90
19555;DHT22;9924;50.828;6.440;2024-03-02T04:38:46;8.30;99.90
19555;DHT22;9924;50.828;6.440;2024-03-02T04:41:12;8.20;99.90
19555;DHT22;9924;50.828;6.440;2024-03-02T04:43:38;8.20;99.90
19555;DHT22;9924;50.828;6.440;2024-03-02T04:46:05;8.20;99.90
19555;DHT22;9924;50.828;6.440;2024-03-02T04:48:32;8.20;99.90
19555;DHT22;9924;50.828;6.440;2024-03-02T04:50:57;8.20;99.90
19555;DHT22;9924;50.828;6.440;2024-03-02T04:53:23;8.20;99.90
19555;DHT22;9924;50.828;6.440;2024-03-02T04:55:49;8.20;99.90
19555;DHT22;9924;50.828;6.440;2024-03-02T04:58:43;8.20;99.90
19555;DHT22;9924;50.828;6.440;2024-03-02T05:01:09;8.10;99.90
19555;DHT22;9924;50.828;6.440;2024-03-02T05:03:36;8.20;99.90
19555;DHT22;9924;50.828;6.440;2024-03-02T05:06:02;8.20;99.90
19555;DHT22;9924;50.828;6.440;2024-03-02T05:08:27;8.10;99.90
19555;DHT22;9924;50.828;6.440;2024-03-02T05:10:53;8.10;99.90
19555;DHT22;9924;50.828;6.440;2024-03-02T05:13:19;8.10;99.90
19555;DHT22;9924;50.828;6.440;2024-03-02T05:15:46;8.10;99.90
19555;DHT22;9924;50.828;6.440;2024-03-02T05:18:12;8.10;99.90
19555;DHT22;9924;50.828;6.440;2024-03-02T05:20:37;8.00;99.90
19555;DHT22;9924;50.828;6.440;2024-03-02T05:23:03;8.00;99.90
19555;DHT22;9924;50.828;6.440;2024-03-02T05:25:29;8.00;99.90
19555;DHT22;9924;50.828;6.440;2024-03-02T05:27:54;8.00;99.90
19555;DHT22;9924;50.828;6.440;2024-03-02T05:30:21;8.00;99.90
19555;DHT22;9924;50.828;6.440;2024-03-02T05:32:47;7.90;99.90
19555;DHT22;9924;50.828;6.440;2024-03-02T05:35:12;7.80;99.90
19555;DHT22;9924;50.828;6.440;2024-03-02T05:37:38;7.80;99.90
19555;DHT22;9924;50.828;6.440;2024-03-02T05:40:05;7.80;99.90
19555;DHT22;9924;50.828;6.440;2024-03-02T05:42:31;7.80;99.90
19555;DHT22;9924;50.828;6.440;2024-03-02T05:44:56;7.80;99.90
19555;DHT22;9924;50.828;6.440;2024-03-02T05:47:22;7.70;99.90
19555;DHT22;9924;50.828;6.440;2024-03-02T05:49:48;7.70;99.90
19555;DHT22;9924;50.828;6.440;2024-03-02T05:52:13;7.70;99.90
19555;DHT22;9924;50.828;6.440;2024-03-02T05:54:39;7.70;99.90
19555;DHT22;9924;50.828;6.440;2024-03-02T05:57:05;7.60;99.90
19555;DHT22;9924;50.828;6.440;2024-03-02T05:59:57;7.60;99.90
19555;DHT22;9924;50.828;6.440;2024-03-02T06:02:22;7.60;99.90
19555;DHT22;9924;50.828;6.440;2024-03-02T06:04:48;7.60;99.90
19555;DHT22;9924;50.828;6.440;2024-03-02T06:07:14;7.50;99.90
19555;DHT22;9924;50.828;6.440;2024-03-02T06:09:41;7.50;99.90
19555;DHT22;9924;50.828;6.440;2024-03-02T06:12:06;7.50;99.90
19555;DHT22;9924;50.828;6.440;2024-03-02T06:14:32;7.50;99.90
19555;DHT22;9924;50.828;6.440;2024-03-02T06:16:58;7.60;99.90
19555;DHT22;9924;50.828;6.440;2024-03-02T06:19:25;7.50;99.90
19555;DHT22;9924;50.828;6.440;2024-03-02T06:21:50;7.50;99.90
19555;DHT22;9924;50.828;6.440;2024-03-02T06:24:16;7.50;99.90
19555;DHT22;9924;50.828;6.440;2024-03-02T06:26:42;7.50;99.90
19555;DHT22;9924;50.828;6.440;2024-03-02T06:29:07;7.50;99.90
19555;DHT22;9924;50.828;6.440;2024-03-02T06:31:33;7.50;99.90
19555;DHT22;9924;50.828;6.440;2024-03-02T06:33:59;7.50;99.90
19555;DHT22;9924;50.828;6.440;2024-03-02T06:36:24;7.50;99.90
19555;DHT22;9924;50.828;6.440;2024-03-02T06:38:51;7.50;99.90
19555;DHT22;9924;50.828;6.440;2024-03-02T06:41:17;7.60;99.90
19555;DHT22;9924;50.828;6.440;2024-03-02T06:43:42;7.60;99.90
19555;DHT22;9924;50.828;6.440;2024-03-02T06:46:08;7.60;99.90
19555;DHT22;9924;50.828;6.440;2024-03-02T06:48:34;7.70;99.90
19555;DHT22;9924;50.828;6.440;2024-03-02T06:51:00;7.70;99.90
19555;DHT22;9924;50.828;6.440;2024-03-02T06:53:26;7.80;99.90
19555;DHT22;9924;50.828;6.440;2024-03-02T06:55:52;8.10;99.90
19555;DHT22;9924;50.828;6.440;2024-03-02T06:58:18;8.20;99.90
19555;DHT22;9924;50.828;6.440;2024-03-02T07:00:44;8.30;99.90
19555;DHT22;9924;50.828;6.440;2024-03-02T07:03:09;8.50;99.90
19555;DHT22;9924;50.828;6.440;2024-03-02T07:05:35;8.70;99.90
19555;DHT22;9924;50.828;6.440;2024-03-02T07:08:01;8.80;99.90
19555;DHT22;9924;50.828;6.440;2024-03-02T07:10:28;8.80;99.90
19555;DHT22;9924;50.828;6.440;2024-03-02T07:12:54;8.70;99.90
19555;DHT22;9924;50.828;6.440;2024-03-02T07:15:19;8.80;99.90
19555;DHT22;9924;50.828;6.440;2024-03-02T07:17:54;8.70;99.90
19555;DHT22;9924;50.828;6.440;2024-03-02T07:20:20;8.60;99.90
19555;DHT22;9924;50.828;6.440;2024-03-02T07:22:46;8.50;99.90
19555;DHT22;9924;50.828;6.440;2024-03-02T07:25:12;8.40;99.90
19555;DHT22;9924;50.828;6.440;2024-03-02T07:27:38;8.30;99.90
19555;DHT22;9924;50.828;6.440;2024-03-02T07:30:05;8.20;99.90
19555;DHT22;9924;50.828;6.440;2024-03-02T07:32:31;8.20;99.90
19555;DHT22;9924;50.828;6.440;2024-03-02T07:34:56;8.10;99.90
19555;DHT22;9924;50.828;6.440;2024-03-02T07:37:23;8.10;99.90
19555;DHT22;9924;50.828;6.440;2024-03-02T07:39:49;8.10;99.90
19555;DHT22;9924;50.828;6.440;2024-03-02T07:42:15;8.20;99.90
19555;DHT22;9924;50.828;6.440;2024-03-02T07:44:41;8.20;99.90
19555;DHT22;9924;50.828;6.440;2024-03-02T07:47:07;8.20;99.90
19555;DHT22;9924;50.828;6.440;2024-03-02T07:49:33;8.20;99.90
19555;DHT22;9924;50.828;6.440;2024-03-02T07:52:00;8.20;99.90
19555;DHT22;9924;50.828;6.440;2024-03-02T07:54:26;8.30;99.90
19555;DHT22;9924;50.828;6.440;2024-03-02T07:56:52;8.30;99.90
19555;DHT22;9924;50.828;6.440;2024-03-02T07:59:18;8.30;99.90
19555;DHT22;9924;50.828;6.440;2024-03-02T08:01:44;8.40;99.90
19555;DHT22;9924;50.828;6.440;2024-03-02T08:04:10;8.30;99.90
19555;DHT22;9924;50.828;6.440;2024-03-02T08:06:35;8.30;99.90
19555;DHT22;9924;50.828;6.440;2024-03-02T08:09:01;8.30;99.90
19555;DHT22;9924;50.828;6.440;2024-03-02T08:11:28;8.40;99.90
19555;DHT22;9924;50.828;6.440;2024-03-02T08:13:55;8.40;99.90
19555;DHT22;9924;50.828;6.440;2024-03-02T08:16:24;8.50;99.90
19555;DHT22;9924;50.828;6.440;2024-03-02T08:18:51;8.60;99.90
19555;DHT22;9924;50.828;6.440;2024-03-02T08:21:17;8.60;99.90
19555;DHT22;9924;50.828;6.440;2024-03-02T08:23:43;8.70;99.90
19555;DHT22;9924;50.828;6.440;2024-03-02T08:26:10;8.80;99.90
19555;DHT22;9924;50.828;6.440;2024-03-02T08:28:36;8.80;99.90
19555;DHT22;9924;50.828;6.440;2024-03-02T08:31:07;8.90;99.90
19555;DHT22;9924;50.828;6.440;2024-03-02T08:33:33;8.90;99.90
19555;DHT22;9924;50.828;6.440;2024-03-02T08:35:59;9.00;99.90
19555;DHT22;9924;50.828;6.440;2024-03-02T08:38:25;9.10;99.90
19555;DHT22;9924;50.828;6.440;2024-03-02T08:40:51;9.20;99.90
19555;DHT22;9924;50.828;6.440;2024-03-02T08:43:17;9.30;99.90
19555;DHT22;9924;50.828;6.440;2024-03-02T08:45:43;9.40;99.90
19555;DHT22;9924;50.828;6.440;2024-03-02T08:48:09;9.50;99.90
19555;DHT22;9924;50.828;6.440;2024-03-02T08:50:35;9.50;99.90
19555;DHT22;9924;50.828;6.440;2024-03-02T08:53:02;9.50;99.90
19555;DHT22;9924;50.828;6.440;2024-03-02T08:55:28;9.60;99.90
19555;DHT22;9924;50.828;6.440;2024-03-02T08:57:53;9.60;99.90
19555;DHT22;9924;50.828;6.440;2024-03-02T09:00:19;9.60;99.90
19555;DHT22;9924;50.828;6.440;2024-03-02T09:02:45;9.60;99.90
19555;DHT22;9924;50.828;6.440;2024-03-02T09:05:11;9.60;99.90
19555;DHT22;9924;50.828;6.440;2024-03-02T09:07:37;9.50;99.90
19555;DHT22;9924;50.828;6.440;2024-03-02T09:10:08;9.50;99.90
19555;DHT22;9924;50.828;6.440;2024-03-02T09:12:34;9.50;99.90
19555;DHT22;9924;50.828;6.440;2024-03-02T09:15:03;9.50;99.90
19555;DHT22;9924;50.828;6.440;2024-03-02T09:17:29;9.50;99.90
19555;DHT22;9924;50.828;6.440;2024-03-02T09:19:55;9.60;99.90
19555;DHT22;9924;50.828;6.440;2024-03-02T09:22:21;9.60;99.90
19555;DHT22;9924;50.828;6.440;2024-03-02T09:24:47;9.70;99.90
19555;DHT22;9924;50.828;6.440;2024-03-02T09:27:12;9.70;99.90
19555;DHT22;9924;50.828;6.440;2024-03-02T09:29:38;9.80;99.90
19555;DHT22;9924;50.828;6.440;2024-03-02T09:32:05;9.90;99.90
19555;DHT22;9924;50.828;6.440;2024-03-02T09:34:31;9.90;99.90
19555;DHT22;9924;50.828;6.440;2024-03-02T09:36:57;9.90;99.90
19555;DHT22;9924;50.828;6.440;2024-03-02T09:39:23;10.00;99.90
19555;DHT22;9924;50.828;6.440;2024-03-02T09:41:49;10.00;99.90
19555;DHT22;9924;50.828;6.440;2024-03-02T09:44:14;10.00;99.90
19555;DHT22;9924;50.828;6.440;2024-03-02T09:46:40;9.90;99.90
19555;DHT22;9924;50.828;6.440;2024-03-02T09:49:12;9.90;99.90
19555;DHT22;9924;50.828;6.440;2024-03-02T09:51:39;9.90;99.90
19555;DHT22;9924;50.828;6.440;2024-03-02T09:54:07;9.90;99.90
19555;DHT22;9924;50.828;6.440;2024-03-02T09:56:33;10.00;99.90
19555;DHT22;9924;50.828;6.440;2024-03-02T09:58:59;10.00;99.90
19555;DHT22;9924;50.828;6.440;2024-03-02T10:01:25;10.00;99.90
19555;DHT22;9924;50.828;6.440;2024-03-02T10:03:51;10.10;99.90
19555;DHT22;9924;50.828;6.440;2024-03-02T10:06:21;10.20;99.90
19555;DHT22;9924;50.828;6.440;2024-03-02T10:08:47;10.50;99.90
19555;DHT22;9924;50.828;6.440;2024-03-02T10:11:31;10.90;99.90
19555;DHT22;9924;50.828;6.440;2024-03-02T10:14:08;11.50;99.90
19555;DHT22;9924;50.828;6.440;2024-03-02T10:16:42;11.80;99.90
19555;DHT22;9924;50.828;6.440;2024-03-02T10:19:24;12.10;99.90
19555;DHT22;9924;50.828;6.440;2024-03-02T10:21:53;11.90;99.90
19555;DHT22;9924;50.828;6.440;2024-03-02T10:24:21;11.60;99.90
19555;DHT22;9924;50.828;6.440;2024-03-02T10:26:47;11.80;99.90
19555;DHT22;9924;50.828;6.440;2024-03-02T10:29:13;12.20;99.90
19555;DHT22;9924;50.828;6.440;2024-03-02T10:31:40;12.50;99.90
19555;DHT22;9924;50.828;6.440;2024-03-02T10:34:07;12.90;99.90
19555;DHT22;9924;50.828;6.440;2024-03-02T10:36:37;13.20;99.90
19555;DHT22;9924;50.828;6.440;2024-03-02T10:39:06;13.60;99.90
19555;DHT22;9924;50.828;6.440;2024-03-02T10:41:34;14.00;99.90
19555;DHT22;9924;50.828;6.440;2024-03-02T10:44:04;14.00;99.90
19555;DHT22;9924;50.828;6.440;2024-03-02T10:46:32;14.10;99.90
19555;DHT22;9924;50.828;6.440;2024-03-02T10:49:02;14.10;99.90
19555;DHT22;9924;50.828;6.440;2024-03-02T10:51:30;14.10;99.90
19555;DHT22;9924;50.828;6.440;2024-03-02T10:54:01;14.00;99.90
19555;DHT22;9924;50.828;6.440;2024-03-02T10:56:31;13.90;99.90
19555;DHT22;9924;50.828;6.440;2024-03-02T11:01:32;14.20;99.90
19555;DHT22;9924;50.828;6.440;2024-03-02T11:03:59;14.10;99.90
19555;DHT22;9924;50.828;6.440;2024-03-02T11:06:27;14.10;99.90
19555;DHT22;9924;50.828;6.440;2024-03-02T11:08:55;14.40;99.90
19555;DHT22;9924;50.828;6.440;2024-03-02T11:11:29;14.50;99.90
19555;DHT22;9924;50.828;6.440;2024-03-02T11:13:57;14.60;99.90
19555;DHT22;9924;50.828;6.440;2024-03-02T11:16:35;14.70;99.90
19555;DHT22;9924;50.828;6.440;2024-03-02T11:19:12;14.60;99.90
19555;DHT22;9924;50.828;6.440;2024-03-02T11:21:38;14.30;99.90
19555;DHT22;9924;50.828;6.440;2024-03-02T11:26:53;14.50;99.90
19555;DHT22;9924;50.828;6.440;2024-03-02T11:32:22;14.90;99.90
19555;DHT22;9924;50.828;6.440;2024-03-02T11:34:50;14.70;99.90
19555;DHT22;9924;50.828;6.440;2024-03-02T11:37:19;14.70;99.90
19555;DHT22;9924;50.828;6.440;2024-03-02T11:39:51;14.90;99.90
19555;DHT22;9924;50.828;6.440;2024-03-02T11:42:17;14.50;99.90
19555;DHT22;9924;50.828;6.440;2024-03-02T11:44:46;14.10;99.90
19555;DHT22;9924;50.828;6.440;2024-03-02T11:47:14;13.80;99.90
19555;DHT22;9924;50.828;6.440;2024-03-02T11:49:42;13.60;99.90
19555;DHT22;9924;50.828;6.440;2024-03-02T11:52:10;13.50;99.90
19555;DHT22;9924;50.828;6.440;2024-03-02T11:54:37;13.50;99.90
19555;DHT22;9924;50.828;6.440;2024-03-02T11:57:12;13.60;99.90
19555;DHT22;9924;50.828;6.440;2024-03-02T11:59:38;13.60;99.90
19555;DHT22;9924;50.828;6.440;2024-03-02T12:02:03;13.70;99.90
19555;DHT22;9924;50.828;6.440;2024-03-02T12:04:29;13.60;99.90
19555;DHT22;9924;50.828;6.440;2024-03-02T12:06:58;13.60;99.90
19555;DHT22;9924;50.828;6.440;2024-03-02T12:09:30;13.60;99.90
19555;DHT22;9924;50.828;6.440;2024-03-02T12:12:05;13.70;99.90
19555;DHT22;9924;50.828;6.440;2024-03-02T12:14:32;13.60;99.90
19555;DHT22;9924;50.828;6.440;2024-03-02T12:16:58;13.70;99.90
19555;DHT22;9924;50.828;6.440;2024-03-02T12:19:25;13.70;99.90
19555;DHT22;9924;50.828;6.440;2024-03-02T12:21:52;13.60;99.90
19555;DHT22;9924;50.828;6.440;2024-03-02T12:24:18;13.70;99.90
19555;DHT22;9924;50.828;6.440;2024-03-02T12:26:44;14.00;99.90
19555;DHT22;9924;50.828;6.440;2024-03-02T12:29:10;14.10;99.90
19555;DHT22;9924;50.828;6.440;2024-03-02T12:31:36;14.20;99.90
19555;DHT22;9924;50.828;6.440;2024-03-02T12:34:03;14.20;99.90
19555;DHT22;9924;50.828;6.440;2024-03-02T12:36:29;14.10;99.90
19555;DHT22;9924;50.828;6.440;2024-03-02T12:38:55;14.00;99.90
19555;DHT22;9924;50.828;6.440;2024-03-02T12:41:21;13.80;99.90
19555;DHT22;9924;50.828;6.440;2024-03-02T12:43:46;13.70;99.90
19555;DHT22;9924;50.828;6.440;2024-03-02T12:46:12;13.70;99.90
19555;DHT22;9924;50.828;6.440;2024-03-02T12:48:38;13.70;99.90
19555;DHT22;9924;50.828;6.440;2024-03-02T12:51:07;13.60;99.90
19555;DHT22;9924;50.828;6.440;2024-03-02T12:53:33;13.70;99.90
19555;DHT22;9924;50.828;6.440;2024-03-02T12:55:59;13.80;99.90
19555;DHT22;9924;50.828;6.440;2024-03-02T12:58:25;14.00;99.90
19555;DHT22;9924;50.828;6.440;2024-03-02T13:01:08;13.90;99.90
19555;DHT22;9924;50.828;6.440;2024-03-02T13:03:41;13.90;99.90
19555;DHT22;9924;50.828;6.440;2024-03-02T13:06:07;14.10;99.90
19555;DHT22;9924;50.828;6.440;2024-03-02T13:08:33;14.20;99.90
19555;DHT22;9924;50.828;6.440;2024-03-02T13:10:59;14.30;99.90
19555;DHT22;9924;50.828;6.440;2024-03-02T13:13:25;14.30;99.90
19555;DHT22;9924;50.828;6.440;2024-03-02T13:15:55;14.30;99.90
19555;DHT22;9924;50.828;6.440;2024-03-02T13:18:21;14.50;99.90
19555;DHT22;9924;50.828;6.440;2024-03-02T13:20:47;15.00;99.90
19555;DHT22;9924;50.828;6.440;2024-03-02T13:23:13;15.70;99.90
19555;DHT22;9924;50.828;6.440;2024-03-02T13:25:38;16.10;99.90
19555;DHT22;9924;50.828;6.440;2024-03-02T13:28:04;16.20;99.90
19555;DHT22;9924;50.828;6.440;2024-03-02T13:30:30;16.10;99.90
19555;DHT22;9924;50.828;6.440;2024-03-02T13:32:56;16.10;99.90
19555;DHT22;9924;50.828;6.440;2024-03-02T13:35:22;16.60;99.90
19555;DHT22;9924;50.828;6.440;2024-03-02T13:37:47;17.50;99.90
19555;DHT22;9924;50.828;6.440;2024-03-02T13:40:15;17.70;99.90
19555;DHT22;9924;50.828;6.440;2024-03-02T13:42:45;17.20;99.90
19555;DHT22;9924;50.828;6.440;2024-03-02T13:45:12;16.30;99.90
19555;DHT22;9924;50.828;6.440;2024-03-02T13:47:38;15.30;99.90
19555;DHT22;9924;50.828;6.440;2024-03-02T13:50:04;15.20;99.90
19555;DHT22;9924;50.828;6.440;2024-03-02T13:52:30;15.30;99.90
19555;DHT22;9924;50.828;6.440;2024-03-02T13:54:56;15.30;99.90
19555;DHT22;9924;50.828;6.440;2024-03-02T13:57:22;16.00;99.90
19555;DHT22;9924;50.828;6.440;2024-03-02T13:59:48;16.10;99.90
19555;DHT22;9924;50.828;6.440;2024-03-02T14:02:15;16.20;99.90
19555;DHT22;9924;50.828;6.440;2024-03-02T14:04:40;15.70;99.90
19555;DHT22;9924;50.828;6.440;2024-03-02T14:07:07;15.60;99.90
19555;DHT22;9924;50.828;6.440;2024-03-02T14:09:33;15.90;99.90
19555;DHT22;9924;50.828;6.440;2024-03-02T14:11:58;17.00;99.90
19555;DHT22;9924;50.828;6.440;2024-03-02T14:14:27;17.80;99.90
19555;DHT22;9924;50.828;6.440;2024-03-02T14:16:54;18.10;99.90
19555;DHT22;9924;50.828;6.440;2024-03-02T14:19:20;17.50;99.90
19555;DHT22;9924;50.828;6.440;2024-03-02T14:21:47;17.20;99.90
19555;DHT22;9924;50.828;6.440;2024-03-02T14:24:13;16.60;99.90
19555;DHT22;9924;50.828;6.440;2024-03-02T14:26:39;16.40;99.90
19555;DHT22;9924;50.828;6.440;2024-03-02T14:29:05;16.20;99.90
19555;DHT22;9924;50.828;6.440;2024-03-02T14:31:32;16.10;99.90
19555;DHT22;9924;50.828;6.440;2024-03-02T14:33:58;16.00;99.90
19555;DHT22;9924;50.828;6.440;2024-03-02T14:36:24;16.00;99.90
19555;DHT22;9924;50.828;6.440;2024-03-02T14:38:49;15.70;99.90
19555;DHT22;9924;50.828;6.440;2024-03-02T14:41:15;15.50;99.90
19555;DHT22;9924;50.828;6.440;2024-03-02T14:43:41;15.60;99.90
19555;DHT22;9924;50.828;6.440;2024-03-02T14:46:07;15.60;99.90
19555;DHT22;9924;50.828;6.440;2024-03-02T14:48:36;15.80;99.90
19555;DHT22;9924;50.828;6.440;2024-03-02T14:51:03;16.00;99.90
19555;DHT22;9924;50.828;6.440;2024-03-02T14:53:29;15.90;99.90
19555;DHT22;9924;50.828;6.440;2024-03-02T14:55:55;15.50;99.90
19555;DHT22;9924;50.828;6.440;2024-03-02T14:58:21;15.10;99.90
19555;DHT22;9924;50.828;6.440;2024-03-02T15:00:46;15.00;99.90
19555;DHT22;9924;50.828;6.440;2024-03-02T15:03:12;15.00;99.90
19555;DHT22;9924;50.828;6.440;2024-03-02T15:05:38;14.80;99.90
19555;DHT22;9924;50.828;6.440;2024-03-02T15:08:06;14.70;99.90
19555;DHT22;9924;50.828;6.440;2024-03-02T15:10:31;14.90;99.90
19555;DHT22;9924;50.828;6.440;2024-03-02T15:12:58;14.90;99.90
19555;DHT22;9924;50.828;6.440;2024-03-02T15:15:24;14.80;99.90
19555;DHT22;9924;50.828;6.440;2024-03-02T15:17:53;14.70;99.90
19555;DHT22;9924;50.828;6.440;2024-03-02T15:20:19;14.80;99.90
19555;DHT22;9924;50.828;6.440;2024-03-02T15:22:47;15.40;99.90
19555;DHT22;9924;50.828;6.440;2024-03-02T15:25:13;15.90;99.90
19555;DHT22;9924;50.828;6.440;2024-03-02T15:27:38;16.00;99.90
19555;DHT22;9924;50.828;6.440;2024-03-02T15:30:05;16.20;99.90
19555;DHT22;9924;50.828;6.440;2024-03-02T15:32:32;16.00;99.90
19555;DHT22;9924;50.828;6.440;2024-03-02T15:34:59;15.70;99.90
19555;DHT22;9924;50.828;6.440;2024-03-02T15:37:25;15.20;99.90
19555;DHT22;9924;50.828;6.440;2024-03-02T15:39:51;14.90;99.90
19555;DHT22;9924;50.828;6.440;2024-03-02T15:42:16;14.70;99.90
19555;DHT22;9924;50.828;6.440;2024-03-02T15:44:43;14.60;99.90
19555;DHT22;9924;50.828;6.440;2024-03-02T15:47:09;14.40;99.90
19555;DHT22;9924;50.828;6.440;2024-03-02T15:49:35;14.30;99.90
19555;DHT22;9924;50.828;6.440;2024-03-02T15:52:01;14.30;99.90
19555;DHT22;9924;50.828;6.440;2024-03-02T15:54:27;14.30;99.90
19555;DHT22;9924;50.828;6.440;2024-03-02T15:56:53;14.40;99.90
19555;DHT22;9924;50.828;6.440;2024-03-02T15:59:19;14.50;99.90
19555;DHT22;9924;50.828;6.440;2024-03-02T16:01:44;14.40;99.90
19555;DHT22;9924;50.828;6.440;2024-03-02T16:04:10;14.40;99.90